sensor_id;sensor_type;location;lat;lon;timestamp;pressure;altitude;pressure_sealevel;temperature;humidity
63954;BME280;50128;52.094;5.232;2022-09-24T00:00:06;101178.0;;;15.15;95.7
63954;BME280;50128;52.094;5.232;2022-09-24T00:01:43;101181.0;;;15.2;95.19
63954;BME280;50128;52.094;5.232;2022-09-24T00:03:21;101180.0;;;15.09;96.1
63954;BME280;50128;52.094;5.232;2022-09-24T00:06:35;101178.0;;;15.05;96.43
63954;BME280;50128;52.094;5.232;2022-09-24T00:08:15;101178.0;;;15.24;95.45
63954;BME280;50128;52.094;5.232;2022-09-24T00:09:52;101177.0;;;15.17;95.87
63954;BME280;50128;52.094;5.232;2022-09-24T00:11:28;101174.0;;;15.15;96.09
63954;BME280;50128;52.094;5.232;2022-09-24T00:14:44;101173.0;;;15.09;95.96
63954;BME280;50128;52.094;5.232;2022-09-24T00:16:22;101176.0;;;15.24;95.62
63954;BME280;50128;52.094;5.232;2022-09-24T00:18:01;101173.0;;;15.16;95.89
63954;BME280;50128;52.094;5.232;2022-09-24T00:21:15;101172.0;;;15.11;96.16
63954;BME280;50128;52.094;5.232;2022-09-24T00:22:53;101170.0;;;15.11;96.12
63954;BME280;50128;52.094;5.232;2022-09-24T00:27:21;101165.0;;;14.95;97.69
63954;BME280;50128;52.094;5.232;2022-09-24T00:28:59;101167.0;;;14.97;97.57
63954;BME280;50128;52.094;5.232;2022-09-24T00:30:36;101161.0;;;15.06;96.92
63954;BME280;50128;52.094;5.232;2022-09-24T00:33:52;101163.0;;;15.07;96.43
63954;BME280;50128;52.094;5.232;2022-09-24T00:35:30;101163.0;;;15.19;96.1
63954;BME280;50128;52.094;5.232;2022-09-24T00:37:08;101161.0;;;15.14;95.98
63954;BME280;50128;52.094;5.232;2022-09-24T00:38:47;101162.0;;;15.25;95.12
63954;BME280;50128;52.094;5.232;2022-09-24T00:42:04;101158.0;;;15.17;95.14
63954;BME280;50128;52.094;5.232;2022-09-24T00:43:40;101158.0;;;15.07;95.66
63954;BME280;50128;52.094;5.232;2022-09-24T00:45:17;101155.0;;;15.15;95.61
63954;BME280;50128;52.094;5.232;2022-09-24T00:48:33;101152.0;;;15.16;94.94
63954;BME280;50128;52.094;5.232;2022-09-24T00:50:16;101147.0;;;15.11;95.43
63954;BME280;50128;52.094;5.232;2022-09-24T00:51:53;101149.0;;;14.96;96.33
63954;BME280;50128;52.094;5.232;2022-09-24T00:53:32;101148.0;;;14.99;96.12
63954;BME280;50128;52.094;5.232;2022-09-24T00:56:49;101146.0;;;15.09;95.79
63954;BME280;50128;52.094;5.232;2022-09-24T00:58:27;101146.0;;;14.85;97.24
63954;BME280;50128;52.094;5.232;2022-09-24T01:00:07;101142.0;;;14.88;97.35
63954;BME280;50128;52.094;5.232;2022-09-24T01:01:46;101145.0;;;14.96;96.38
63954;BME280;50128;52.094;5.232;2022-09-24T01:05:03;101143.0;;;14.74;97.63
63954;BME280;50128;52.094;5.232;2022-09-24T01:08:17;101140.0;;;15.08;95.04
63954;BME280;50128;52.094;5.232;2022-09-24T01:11:40;101134.0;;;15.12;94.71
63954;BME280;50128;52.094;5.232;2022-09-24T01:13:32;101135.0;;;14.98;95.59
63954;BME280;50128;52.094;5.232;2022-09-24T01:15:21;101132.0;;;14.89;95.95
63954;BME280;50128;52.094;5.232;2022-09-24T01:17:11;101130.0;;;15.01;95.33
63954;BME280;50128;52.094;5.232;2022-09-24T01:18:54;101125.0;;;14.79;96.28
63954;BME280;50128;52.094;5.232;2022-09-24T01:20:47;101122.0;;;14.91;96.15
63954;BME280;50128;52.094;5.232;2022-09-24T01:23:47;101121.0;;;14.9;95.66
63954;BME280;50128;52.094;5.232;2022-09-24T01:26:43;101120.0;;;14.74;96.28
63954;BME280;50128;52.094;5.232;2022-09-24T01:28:32;101123.0;;;14.85;95.72
63954;BME280;50128;52.094;5.232;2022-09-24T01:30:15;101120.0;;;14.72;97.09
63954;BME280;50128;52.094;5.232;2022-09-24T01:31:55;101123.0;;;14.74;96.74
63954;BME280;50128;52.094;5.232;2022-09-24T01:33:35;101116.0;;;14.68;97.5
63954;BME280;50128;52.094;5.232;2022-09-24T01:35:15;101118.0;;;14.68;97.29
63954;BME280;50128;52.094;5.232;2022-09-24T01:38:39;101116.0;;;14.87;96.58
63954;BME280;50128;52.094;5.232;2022-09-24T01:40:19;101111.0;;;14.76;96.29
63954;BME280;50128;52.094;5.232;2022-09-24T01:41:58;101108.0;;;14.8;96.64
63954;BME280;50128;52.094;5.232;2022-09-24T01:43:34;101106.0;;;14.87;96.5
63954;BME280;50128;52.094;5.232;2022-09-24T01:46:51;101105.0;;;14.79;96.36
63954;BME280;50128;52.094;5.232;2022-09-24T01:48:29;101105.0;;;14.79;96.17
63954;BME280;50128;52.094;5.232;2022-09-24T01:50:07;101105.0;;;14.73;96.85
63954;BME280;50128;52.094;5.232;2022-09-24T01:53:28;101105.0;;;14.68;97.05
63954;BME280;50128;52.094;5.232;2022-09-24T01:55:07;101102.0;;;14.61;98.06
63954;BME280;50128;52.094;5.232;2022-09-24T01:56:48;101103.0;;;14.61;98.52
63954;BME280;50128;52.094;5.232;2022-09-24T01:58:30;101101.0;;;14.58;98.26
63954;BME280;50128;52.094;5.232;2022-09-24T02:01:54;101095.0;;;14.58;98.62
63954;BME280;50128;52.094;5.232;2022-09-24T02:03:45;101095.0;;;14.76;97.41
63954;BME280;50128;52.094;5.232;2022-09-24T02:05:30;101092.0;;;14.74;96.77
63954;BME280;50128;52.094;5.232;2022-09-24T02:07:25;101092.0;;;14.67;97.36
63954;BME280;50128;52.094;5.232;2022-09-24T02:09:28;101090.0;;;14.52;98.41
63954;BME280;50128;52.094;5.232;2022-09-24T02:11:07;101086.0;;;14.72;97.06
63954;BME280;50128;52.094;5.232;2022-09-24T02:14:30;101085.0;;;14.72;96.11
63954;BME280;50128;52.094;5.232;2022-09-24T02:16:14;101083.0;;;14.72;96.21
63954;BME280;50128;52.094;5.232;2022-09-24T02:17:59;101080.0;;;14.66;96.66
63954;BME280;50128;52.094;5.232;2022-09-24T02:19:39;101077.0;;;14.83;95.48
63954;BME280;50128;52.094;5.232;2022-09-24T02:21:18;101075.0;;;14.75;96.16
63954;BME280;50128;52.094;5.232;2022-09-24T02:24:40;101075.0;;;14.66;96.42
63954;BME280;50128;52.094;5.232;2022-09-24T02:26:20;101080.0;;;14.52;97.86
63954;BME280;50128;52.094;5.232;2022-09-24T02:27:56;101073.0;;;14.66;97.11
63954;BME280;50128;52.094;5.232;2022-09-24T02:29:32;101074.0;;;14.76;96.04
63954;BME280;50128;52.094;5.232;2022-09-24T02:32:49;101073.0;;;14.58;96.95
63954;BME280;50128;52.094;5.232;2022-09-24T02:34:30;101072.0;;;14.71;96.19
63954;BME280;50128;52.094;5.232;2022-09-24T02:36:11;101076.0;;;14.55;97.16
63954;BME280;50128;52.094;5.232;2022-09-24T02:39:23;101070.0;;;14.49;97.9
63954;BME280;50128;52.094;5.232;2022-09-24T02:41:00;101072.0;;;14.57;97.44
63954;BME280;50128;52.094;5.232;2022-09-24T02:42:37;101070.0;;;14.51;98.11
63954;BME280;50128;52.094;5.232;2022-09-24T02:44:14;101067.0;;;14.4;97.86
63954;BME280;50128;52.094;5.232;2022-09-24T02:47:28;101069.0;;;14.43;98.28
63954;BME280;50128;52.094;5.232;2022-09-24T02:49:04;101068.0;;;14.61;96.91
63954;BME280;50128;52.094;5.232;2022-09-24T02:50:40;101069.0;;;14.53;97.44
63954;BME280;50128;52.094;5.232;2022-09-24T02:53:53;101068.0;;;14.44;97.52
63954;BME280;50128;52.094;5.232;2022-09-24T02:55:30;101071.0;;;14.47;97.47
63954;BME280;50128;52.094;5.232;2022-09-24T02:57:06;101068.0;;;14.42;97.84
63954;BME280;50128;52.094;5.232;2022-09-24T03:00:20;101069.0;;;14.35;98.76
63954;BME280;50128;52.094;5.232;2022-09-24T03:01:57;101069.0;;;14.5;98.16
63954;BME280;50128;52.094;5.232;2022-09-24T03:03:33;101065.0;;;14.45;97.92
63954;BME280;50128;52.094;5.232;2022-09-24T03:05:10;101065.0;;;14.38;97.76
63954;BME280;50128;52.094;5.232;2022-09-24T03:08:23;101066.0;;;14.49;97.03
63954;BME280;50128;52.094;5.232;2022-09-24T03:09:59;101063.0;;;14.54;96.5
63954;BME280;50128;52.094;5.232;2022-09-24T03:11:36;101059.0;;;14.57;96.29
63954;BME280;50128;52.094;5.232;2022-09-24T03:14:48;101055.0;;;14.58;96.01
63954;BME280;50128;52.094;5.232;2022-09-24T03:16:24;101055.0;;;14.35;97.25
63954;BME280;50128;52.094;5.232;2022-09-24T03:18:02;101058.0;;;14.52;96.44
63954;BME280;50128;52.094;5.232;2022-09-24T03:21:17;101055.0;;;14.41;95.93
63954;BME280;50128;52.094;5.232;2022-09-24T03:22:54;101053.0;;;14.53;96.19
63954;BME280;50128;52.094;5.232;2022-09-24T03:24:30;101051.0;;;14.52;96.14
63954;BME280;50128;52.094;5.232;2022-09-24T03:26:07;101050.0;;;14.51;95.84
63954;BME280;50128;52.094;5.232;2022-09-24T03:30:59;101048.0;;;14.35;97.19
63954;BME280;50128;52.094;5.232;2022-09-24T03:32:35;101047.0;;;14.4;96.57
63954;BME280;50128;52.094;5.232;2022-09-24T03:35:48;101048.0;;;14.4;96.48
63954;BME280;50128;52.094;5.232;2022-09-24T03:37:24;101051.0;;;14.43;96.22
63954;BME280;50128;52.094;5.232;2022-09-24T03:39:00;101045.0;;;14.36;96.71
63954;BME280;50128;52.094;5.232;2022-09-24T03:42:12;101047.0;;;14.46;96.2
63954;BME280;50128;52.094;5.232;2022-09-24T03:43:49;101044.0;;;14.42;96.29
63954;BME280;50128;52.094;5.232;2022-09-24T03:45:25;101049.0;;;14.36;96.54
63954;BME280;50128;52.094;5.232;2022-09-24T03:47:01;101046.0;;;14.41;96.01
63954;BME280;50128;52.094;5.232;2022-09-24T03:50:16;101040.0;;;14.42;96.96
63954;BME280;50128;52.094;5.232;2022-09-24T03:51:52;101040.0;;;14.32;97.42
63954;BME280;50128;52.094;5.232;2022-09-24T03:53:28;101040.0;;;14.32;97.24
63954;BME280;50128;52.094;5.232;2022-09-24T03:56:42;101041.0;;;14.33;97.25
63954;BME280;50128;52.094;5.232;2022-09-24T03:58:18;101040.0;;;14.37;96.81
63954;BME280;50128;52.094;5.232;2022-09-24T03:59:55;101047.0;;;14.45;96.9
63954;BME280;50128;52.094;5.232;2022-09-24T04:03:08;101044.0;;;14.41;96.73
63954;BME280;50128;52.094;5.232;2022-09-24T04:04:45;101043.0;;;14.49;96.41
63954;BME280;50128;52.094;5.232;2022-09-24T04:06:21;101042.0;;;14.32;97.07
63954;BME280;50128;52.094;5.232;2022-09-24T04:07:58;101042.0;;;14.41;97.24
63954;BME280;50128;52.094;5.232;2022-09-24T04:11:12;101039.0;;;14.5;96.22
63954;BME280;50128;52.094;5.232;2022-09-24T04:12:49;101035.0;;;14.21;97.81
63954;BME280;50128;52.094;5.232;2022-09-24T04:14:25;101034.0;;;14.49;96.66
63954;BME280;50128;52.094;5.232;2022-09-24T04:17:39;101033.0;;;14.6;95.37
63954;BME280;50128;52.094;5.232;2022-09-24T04:19:15;101035.0;;;14.33;96.87
63954;BME280;50128;52.094;5.232;2022-09-24T04:20:56;101035.0;;;14.31;97.66
63954;BME280;50128;52.094;5.232;2022-09-24T04:22:33;101034.0;;;14.2;98.79
63954;BME280;50128;52.094;5.232;2022-09-24T04:25:47;101032.0;;;14.16;99.55
63954;BME280;50128;52.094;5.232;2022-09-24T04:27:23;101030.0;;;14.3;98.92
63954;BME280;50128;52.094;5.232;2022-09-24T04:28:59;101026.0;;;14.18;98.44
63954;BME280;50128;52.094;5.232;2022-09-24T04:32:13;101024.0;;;14.18;99.07
63954;BME280;50128;52.094;5.232;2022-09-24T04:33:50;101028.0;;;14.26;98.11
63954;BME280;50128;52.094;5.232;2022-09-24T04:35:28;101025.0;;;14.28;97.83
63954;BME280;50128;52.094;5.232;2022-09-24T04:38:41;101020.0;;;14.38;97.31
63954;BME280;50128;52.094;5.232;2022-09-24T04:40:17;101018.0;;;14.33;98.09
63954;BME280;50128;52.094;5.232;2022-09-24T04:41:54;101019.0;;;14.28;98.66
63954;BME280;50128;52.094;5.232;2022-09-24T04:43:31;101019.0;;;14.35;97.88
63954;BME280;50128;52.094;5.232;2022-09-24T04:46:45;101023.0;;;14.29;97.76
63954;BME280;50128;52.094;5.232;2022-09-24T04:48:23;101025.0;;;14.28;98.58
63954;BME280;50128;52.094;5.232;2022-09-24T04:50:01;101024.0;;;14.15;99.41
63954;BME280;50128;52.094;5.232;2022-09-24T04:53:15;101025.0;;;14.16;99.87
63954;BME280;50128;52.094;5.232;2022-09-24T04:54:51;101026.0;;;14.23;99.13
63954;BME280;50128;52.094;5.232;2022-09-24T04:56:27;101024.0;;;14.14;99.74
63954;BME280;50128;52.094;5.232;2022-09-24T04:58:04;101030.0;;;14.25;98.89
63954;BME280;50128;52.094;5.232;2022-09-24T05:01:16;101027.0;;;14.35;98.79
63954;BME280;50128;52.094;5.232;2022-09-24T05:02:56;101030.0;;;14.22;99.16
63954;BME280;50128;52.094;5.232;2022-09-24T05:04:32;101027.0;;;14.33;98.39
63954;BME280;50128;52.094;5.232;2022-09-24T05:07:46;101032.0;;;14.21;99.47
63954;BME280;50128;52.094;5.232;2022-09-24T05:09:22;101032.0;;;14.23;99.21
63954;BME280;50128;52.094;5.232;2022-09-24T05:11:01;101036.0;;;14.12;99.87
63954;BME280;50128;52.094;5.232;2022-09-24T05:14:16;101038.0;;;14.07;100.0
63954;BME280;50128;52.094;5.232;2022-09-24T05:15:52;101041.0;;;14.05;100.0
63954;BME280;50128;52.094;5.232;2022-09-24T05:17:28;101041.0;;;14.08;100.0
63954;BME280;50128;52.094;5.232;2022-09-24T05:19:04;101040.0;;;14.07;100.0
63954;BME280;50128;52.094;5.232;2022-09-24T05:22:17;101040.0;;;14.1;100.0
63954;BME280;50128;52.094;5.232;2022-09-24T05:23:54;101041.0;;;14.1;100.0
63954;BME280;50128;52.094;5.232;2022-09-24T05:25:30;101038.0;;;14.1;100.0
63954;BME280;50128;52.094;5.232;2022-09-24T05:28:45;101039.0;;;14.38;99.22
63954;BME280;50128;52.094;5.232;2022-09-24T05:30:23;101036.0;;;14.6;97.6
63954;BME280;50128;52.094;5.232;2022-09-24T05:32:04;101037.0;;;14.35;99.13
63954;BME280;50128;52.094;5.232;2022-09-24T05:33:41;101038.0;;;14.23;99.89
63954;BME280;50128;52.094;5.232;2022-09-24T05:36:54;101043.0;;;14.21;100.0
63954;BME280;50128;52.094;5.232;2022-09-24T05:38:32;101047.0;;;14.19;100.0
63954;BME280;50128;52.094;5.232;2022-09-24T05:41:13;101045.0;;;14.14;100.0
63954;BME280;50128;52.094;5.232;2022-09-24T05:42:50;101045.0;;;14.1;100.0
63954;BME280;50128;52.094;5.232;2022-09-24T05:44:27;101052.0;;;14.18;100.0
63954;BME280;50128;52.094;5.232;2022-09-24T05:47:39;101044.0;;;14.23;100.0
63954;BME280;50128;52.094;5.232;2022-09-24T05:49:15;101050.0;;;14.21;99.91
63954;BME280;50128;52.094;5.232;2022-09-24T05:50:54;101051.0;;;14.17;100.0
63954;BME280;50128;52.094;5.232;2022-09-24T05:52:30;101051.0;;;14.13;100.0
63954;BME280;50128;52.094;5.232;2022-09-24T05:55:44;101052.0;;;14.14;100.0
63954;BME280;50128;52.094;5.232;2022-09-24T05:57:20;101052.0;;;14.22;100.0
63954;BME280;50128;52.094;5.232;2022-09-24T05:58:56;101051.0;;;14.34;99.56
63954;BME280;50128;52.094;5.232;2022-09-24T06:02:09;101050.0;;;14.38;99.38
63954;BME280;50128;52.094;5.232;2022-09-24T06:03:48;101055.0;;;14.31;99.57
63954;BME280;50128;52.094;5.232;2022-09-24T06:05:25;101055.0;;;14.21;100.0
63954;BME280;50128;52.094;5.232;2022-09-24T06:08:38;101055.0;;;14.18;100.0
63954;BME280;50128;52.094;5.232;2022-09-24T06:10:16;101052.0;;;14.37;100.0
63954;BME280;50128;52.094;5.232;2022-09-24T06:11:53;101053.0;;;14.48;99.11
63954;BME280;50128;52.094;5.232;2022-09-24T06:13:30;101056.0;;;14.65;98.39
63954;BME280;50128;52.094;5.232;2022-09-24T06:16:45;101058.0;;;14.76;97.25
63954;BME280;50128;52.094;5.232;2022-09-24T06:18:21;101056.0;;;14.93;96.02
63954;BME280;50128;52.094;5.232;2022-09-24T06:19:57;101060.0;;;14.69;96.84
63954;BME280;50128;52.094;5.232;2022-09-24T06:23:09;101057.0;;;14.45;98.77
63954;BME280;50128;52.094;5.232;2022-09-24T06:24:45;101065.0;;;14.62;98.19
63954;BME280;50128;52.094;5.232;2022-09-24T06:26:22;101065.0;;;14.59;98.13
63954;BME280;50128;52.094;5.232;2022-09-24T06:29:39;101059.0;;;14.62;97.92
63954;BME280;50128;52.094;5.232;2022-09-24T06:31:15;101064.0;;;14.41;99.29
63954;BME280;50128;52.094;5.232;2022-09-24T06:32:52;101068.0;;;14.44;99.57
63954;BME280;50128;52.094;5.232;2022-09-24T06:34:28;101073.0;;;14.67;97.97
63954;BME280;50128;52.094;5.232;2022-09-24T06:37:41;101075.0;;;14.58;97.58
63954;BME280;50128;52.094;5.232;2022-09-24T06:39:18;101074.0;;;14.57;98.42
63954;BME280;50128;52.094;5.232;2022-09-24T06:40:57;101077.0;;;14.82;96.74
63954;BME280;50128;52.094;5.232;2022-09-24T06:44:11;101077.0;;;14.56;98.49
63954;BME280;50128;52.094;5.232;2022-09-24T06:45:47;101080.0;;;14.55;97.77
63954;BME280;50128;52.094;5.232;2022-09-24T06:47:23;101083.0;;;14.43;98.89
63954;BME280;50128;52.094;5.232;2022-09-24T06:48:59;101080.0;;;14.55;98.71
63954;BME280;50128;52.094;5.232;2022-09-24T06:52:15;101085.0;;;14.35;99.61
63954;BME280;50128;52.094;5.232;2022-09-24T06:53:52;101083.0;;;14.64;98.46
63954;BME280;50128;52.094;5.232;2022-09-24T06:55:28;101085.0;;;14.56;98.59
63954;BME280;50128;52.094;5.232;2022-09-24T06:58:42;101087.0;;;14.66;98.25
63954;BME280;50128;52.094;5.232;2022-09-24T07:00:18;101089.0;;;14.74;97.18
63954;BME280;50128;52.094;5.232;2022-09-24T07:01:54;101090.0;;;14.8;97.28
63954;BME280;50128;52.094;5.232;2022-09-24T07:05:09;101092.0;;;14.72;97.57
63954;BME280;50128;52.094;5.232;2022-09-24T07:07:50;101095.0;;;14.58;98.06
63954;BME280;50128;52.094;5.232;2022-09-24T07:09:27;101100.0;;;14.48;99.3
63954;BME280;50128;52.094;5.232;2022-09-24T07:11:03;101101.0;;;14.66;98.62
63954;BME280;50128;52.094;5.232;2022-09-24T07:12:40;101103.0;;;14.72;97.87
63954;BME280;50128;52.094;5.232;2022-09-24T07:14:17;101106.0;;;14.47;100.0
63954;BME280;50128;52.094;5.232;2022-09-24T07:17:29;101106.0;;;14.61;99.85
63954;BME280;50128;52.094;5.232;2022-09-24T07:19:05;101111.0;;;14.95;97.2
63954;BME280;50128;52.094;5.232;2022-09-24T07:20:43;101107.0;;;14.69;97.76
63954;BME280;50128;52.094;5.232;2022-09-24T07:23:57;101111.0;;;14.52;98.65
63954;BME280;50128;52.094;5.232;2022-09-24T07:25:33;101108.0;;;14.44;99.25
63954;BME280;50128;52.094;5.232;2022-09-24T07:27:11;101110.0;;;14.35;100.0
63954;BME280;50128;52.094;5.232;2022-09-24T07:28:48;101112.0;;;14.36;100.0
63954;BME280;50128;52.094;5.232;2022-09-24T07:32:02;101114.0;;;14.4;100.0
63954;BME280;50128;52.094;5.232;2022-09-24T07:33:39;101118.0;;;14.55;99.51
63954;BME280;50128;52.094;5.232;2022-09-24T07:35:15;101119.0;;;14.59;99.12
63954;BME280;50128;52.094;5.232;2022-09-24T07:38:30;101119.0;;;14.82;98.13
63954;BME280;50128;52.094;5.232;2022-09-24T07:40:06;101116.0;;;14.71;98.35
63954;BME280;50128;52.094;5.232;2022-09-24T07:41:43;101120.0;;;14.54;99.44
63954;BME280;50128;52.094;5.232;2022-09-24T07:43:20;101122.0;;;14.5;100.0
63954;BME280;50128;52.094;5.232;2022-09-24T07:46:32;101124.0;;;14.51;100.0
63954;BME280;50128;52.094;5.232;2022-09-24T07:48:10;101120.0;;;14.62;99.7
63954;BME280;50128;52.094;5.232;2022-09-24T07:49:47;101123.0;;;14.64;99.82
63954;BME280;50128;52.094;5.232;2022-09-24T07:53:00;101124.0;;;14.58;100.0
63954;BME280;50128;52.094;5.232;2022-09-24T07:54:36;101123.0;;;14.56;100.0
63954;BME280;50128;52.094;5.232;2022-09-24T07:56:12;101124.0;;;14.67;100.0
63954;BME280;50128;52.094;5.232;2022-09-24T07:59:29;101121.0;;;14.76;98.91
63954;BME280;50128;52.094;5.232;2022-09-24T08:01:05;101123.0;;;14.74;99.24
63954;BME280;50128;52.094;5.232;2022-09-24T08:02:41;101126.0;;;14.6;100.0
63954;BME280;50128;52.094;5.232;2022-09-24T08:04:18;101126.0;;;14.63;100.0
63954;BME280;50128;52.094;5.232;2022-09-24T08:07:34;101126.0;;;14.7;100.0
63954;BME280;50128;52.094;5.232;2022-09-24T08:09:10;101125.0;;;14.69;100.0
63954;BME280;50128;52.094;5.232;2022-09-24T08:10:46;101131.0;;;14.67;100.0
63954;BME280;50128;52.094;5.232;2022-09-24T08:14:00;101124.0;;;14.73;100.0
63954;BME280;50128;52.094;5.232;2022-09-24T08:15:38;101128.0;;;14.72;100.0
63954;BME280;50128;52.094;5.232;2022-09-24T08:17:16;101130.0;;;14.86;100.0
63954;BME280;50128;52.094;5.232;2022-09-24T08:20:29;101131.0;;;14.81;99.5
63954;BME280;50128;52.094;5.232;2022-09-24T08:22:07;101135.0;;;14.92;99.44
63954;BME280;50128;52.094;5.232;2022-09-24T08:23:43;101137.0;;;14.96;99.49
63954;BME280;50128;52.094;5.232;2022-09-24T08:25:20;101141.0;;;15.08;98.75
63954;BME280;50128;52.094;5.232;2022-09-24T08:28:33;101140.0;;;15.28;96.88
63954;BME280;50128;52.094;5.232;2022-09-24T08:30:11;101148.0;;;15.18;97.02
63954;BME280;50128;52.094;5.232;2022-09-24T08:31:48;101150.0;;;15.2;96.39
63954;BME280;50128;52.094;5.232;2022-09-24T08:35:02;101151.0;;;15.07;97.98
63954;BME280;50128;52.094;5.232;2022-09-24T08:36:38;101148.0;;;15.05;97.83
63954;BME280;50128;52.094;5.232;2022-09-24T08:38:14;101150.0;;;15.05;98.68
63954;BME280;50128;52.094;5.232;2022-09-24T08:39:51;101152.0;;;15.16;98.02
63954;BME280;50128;52.094;5.232;2022-09-24T08:43:39;101155.0;;;15.13;99.27
63954;BME280;50128;52.094;5.232;2022-09-24T08:48:14;101161.0;;;15.27;98.71
63954;BME280;50128;52.094;5.232;2022-09-24T08:51:56;101162.0;;;15.34;98.18
63954;BME280;50128;52.094;5.232;2022-09-24T08:53:44;101163.0;;;15.36;97.41
63954;BME280;50128;52.094;5.232;2022-09-24T08:55:27;101165.0;;;15.45;96.06
63954;BME280;50128;52.094;5.232;2022-09-24T08:57:11;101167.0;;;15.3;96.67
63954;BME280;50128;52.094;5.232;2022-09-24T08:58:54;101168.0;;;15.4;96.84
63954;BME280;50128;52.094;5.232;2022-09-24T09:02:36;101174.0;;;15.49;96.02
63954;BME280;50128;52.094;5.232;2022-09-24T09:04:23;101171.0;;;15.39;96.24
63954;BME280;50128;52.094;5.232;2022-09-24T09:06:10;101180.0;;;15.19;97.32
63954;BME280;50128;52.094;5.232;2022-09-24T09:07:56;101180.0;;;15.48;95.52
63954;BME280;50128;52.094;5.232;2022-09-24T09:09:43;101180.0;;;15.22;96.53
63954;BME280;50128;52.094;5.232;2022-09-24T09:11:24;101180.0;;;15.3;96.28
63954;BME280;50128;52.094;5.232;2022-09-24T09:14:56;101183.0;;;15.23;96.75
63954;BME280;50128;52.094;5.232;2022-09-24T09:16:44;101180.0;;;15.24;97.47
63954;BME280;50128;52.094;5.232;2022-09-24T09:18:25;101187.0;;;15.28;97.7
63954;BME280;50128;52.094;5.232;2022-09-24T09:20:10;101187.0;;;15.21;98.3
63954;BME280;50128;52.094;5.232;2022-09-24T09:21:54;101185.0;;;15.29;97.61
63954;BME280;50128;52.094;5.232;2022-09-24T09:25:20;101188.0;;;15.22;98.02
63954;BME280;50128;52.094;5.232;2022-09-24T09:26:58;101193.0;;;15.29;97.5
63954;BME280;50128;52.094;5.232;2022-09-24T09:28:35;101194.0;;;15.14;98.95
63954;BME280;50128;52.094;5.232;2022-09-24T09:30:13;101196.0;;;15.15;99.24
63954;BME280;50128;52.094;5.232;2022-09-24T09:34:07;101200.0;;;15.07;99.96
63954;BME280;50128;52.094;5.232;2022-09-24T09:36:32;101203.0;;;15.18;99.28
63954;BME280;50128;52.094;5.232;2022-09-24T09:38:16;101208.0;;;15.25;98.75
63954;BME280;50128;52.094;5.232;2022-09-24T09:40:04;101205.0;;;15.13;98.53
63954;BME280;50128;52.094;5.232;2022-09-24T09:41:56;101205.0;;;15.29;98.47
63954;BME280;50128;52.094;5.232;2022-09-24T09:43:38;101205.0;;;15.29;97.87
63954;BME280;50128;52.094;5.232;2022-09-24T09:45:24;101203.0;;;15.32;97.99
63954;BME280;50128;52.094;5.232;2022-09-24T09:47:14;101200.0;;;15.29;98.47
63954;BME280;50128;52.094;5.232;2022-09-24T09:48:58;101202.0;;;15.29;98.5
63954;BME280;50128;52.094;5.232;2022-09-24T09:52:23;101203.0;;;15.35;97.63
63954;BME280;50128;52.094;5.232;2022-09-24T09:54:02;101202.0;;;15.32;97.8
63954;BME280;50128;52.094;5.232;2022-09-24T09:55:39;101202.0;;;15.16;98.48
63954;BME280;50128;52.094;5.232;2022-09-24T09:57:19;101205.0;;;15.23;98.43
63954;BME280;50128;52.094;5.232;2022-09-24T10:00:42;101202.0;;;15.25;98.57
63954;BME280;50128;52.094;5.232;2022-09-24T10:02:23;101205.0;;;15.13;98.98
63954;BME280;50128;52.094;5.232;2022-09-24T10:04:03;101207.0;;;15.17;98.74
63954;BME280;50128;52.094;5.232;2022-09-24T10:05:51;101209.0;;;15.25;98.42
63954;BME280;50128;52.094;5.232;2022-09-24T10:09:18;101207.0;;;15.18;98.08
63954;BME280;50128;52.094;5.232;2022-09-24T10:10:56;101207.0;;;15.21;98.4
63954;BME280;50128;52.094;5.232;2022-09-24T10:12:33;101206.0;;;15.27;98.19
63954;BME280;50128;52.094;5.232;2022-09-24T10:14:11;101210.0;;;15.18;98.65
63954;BME280;50128;52.094;5.232;2022-09-24T10:17:33;101211.0;;;15.21;98.75
63954;BME280;50128;52.094;5.232;2022-09-24T10:19:15;101213.0;;;15.34;98.06
63954;BME280;50128;52.094;5.232;2022-09-24T10:20:55;101213.0;;;15.35;98.19
63954;BME280;50128;52.094;5.232;2022-09-24T10:22:34;101214.0;;;15.3;98.7
63954;BME280;50128;52.094;5.232;2022-09-24T10:25:57;101216.0;;;15.27;98.6
63954;BME280;50128;52.094;5.232;2022-09-24T10:27:36;101215.0;;;15.26;98.84
63954;BME280;50128;52.094;5.232;2022-09-24T10:32:12;101224.0;;;15.2;99.09
63954;BME280;50128;52.094;5.232;2022-09-24T10:33:53;101219.0;;;15.25;98.8
63954;BME280;50128;52.094;5.232;2022-09-24T10:35:37;101222.0;;;15.22;99.1
63954;BME280;50128;52.094;5.232;2022-09-24T10:37:15;101224.0;;;15.24;99.14
63954;BME280;50128;52.094;5.232;2022-09-24T10:40:39;101222.0;;;15.25;99.38
63954;BME280;50128;52.094;5.232;2022-09-24T10:42:22;101223.0;;;15.19;99.67
63954;BME280;50128;52.094;5.232;2022-09-24T10:44:04;101223.0;;;15.15;98.65
63954;BME280;50128;52.094;5.232;2022-09-24T10:46:02;101220.0;;;15.25;98.26
63954;BME280;50128;52.094;5.232;2022-09-24T10:47:50;101230.0;;;15.12;99.38
63954;BME280;50128;52.094;5.232;2022-09-24T10:51:30;101230.0;;;15.25;98.64
63954;BME280;50128;52.094;5.232;2022-09-24T10:53:16;101230.0;;;15.28;98.83
63954;BME280;50128;52.094;5.232;2022-09-24T10:55:07;101231.0;;;15.27;98.47
63954;BME280;50128;52.094;5.232;2022-09-24T10:56:54;101234.0;;;15.3;98.79
63954;BME280;50128;52.094;5.232;2022-09-24T10:58:49;101235.0;;;15.32;99.0
63954;BME280;50128;52.094;5.232;2022-09-24T11:00:38;101233.0;;;15.37;98.29
63954;BME280;50128;52.094;5.232;2022-09-24T11:02:26;101235.0;;;15.32;97.91
63954;BME280;50128;52.094;5.232;2022-09-24T11:05:10;101236.0;;;15.25;98.4
63954;BME280;50128;52.094;5.232;2022-09-24T11:07:00;101239.0;;;15.28;98.25
63954;BME280;50128;52.094;5.232;2022-09-24T11:09:05;101235.0;;;15.24;98.25
63954;BME280;50128;52.094;5.232;2022-09-24T11:11:00;101242.0;;;15.26;97.82
63954;BME280;50128;52.094;5.232;2022-09-24T11:12:50;101245.0;;;15.31;98.51
63954;BME280;50128;52.094;5.232;2022-09-24T11:16:55;101246.0;;;15.36;98.07
63954;BME280;50128;52.094;5.232;2022-09-24T11:20:34;101245.0;;;15.46;98.01